sensor_id;sensor_type;location;lat;lon;timestamp;temperature;humidity
40153;DHT22;26371;56.992;23.912;2022-12-07T00:02:10;-0.70;99.90
40153;DHT22;26371;56.992;23.912;2022-12-07T00:04:44;-0.70;99.90
40153;DHT22;26371;56.992;23.912;2022-12-07T00:07:13;-0.80;99.90
40153;DHT22;26371;56.992;23.912;2022-12-07T00:09:44;-0.80;99.90
40153;DHT22;26371;56.992;23.912;2022-12-07T00:12:14;-0.70;99.90
40153;DHT22;26371;56.992;23.912;2022-12-07T00:14:43;-0.80;99.90
40153;DHT22;26371;56.992;23.912;2022-12-07T00:17:17;-0.80;99.90
40153;DHT22;26371;56.992;23.912;2022-12-07T00:19:46;-0.80;99.90
40153;DHT22;26371;56.992;23.912;2022-12-07T00:22:15;-0.80;99.90
40153;DHT22;26371;56.992;23.912;2022-12-07T00:24:44;-0.80;99.90
40153;DHT22;26371;56.992;23.912;2022-12-07T00:27:21;-0.80;99.90
40153;DHT22;26371;56.992;23.912;2022-12-07T00:29:52;-0.80;99.90
40153;DHT22;26371;56.992;23.912;2022-12-07T00:32:21;-0.80;99.90
40153;DHT22;26371;56.992;23.912;2022-12-07T00:34:50;-0.80;99.90
40153;DHT22;26371;56.992;23.912;2022-12-07T00:37:19;-0.80;99.90
40153;DHT22;26371;56.992;23.912;2022-12-07T00:39:47;-0.80;99.90
40153;DHT22;26371;56.992;23.912;2022-12-07T00:42:16;-0.80;99.90
40153;DHT22;26371;56.992;23.912;2022-12-07T00:44:48;-0.80;99.90
40153;DHT22;26371;56.992;23.912;2022-12-07T00:47:18;-0.80;99.90
40153;DHT22;26371;56.992;23.912;2022-12-07T00:49:47;-0.90;99.90
40153;DHT22;26371;56.992;23.912;2022-12-07T00:52:15;-0.90;99.90
40153;DHT22;26371;56.992;23.912;2022-12-07T00:54:44;-0.80;99.90
40153;DHT22;26371;56.992;23.912;2022-12-07T00:57:13;-0.80;99.90
40153;DHT22;26371;56.992;23.912;2022-12-07T00:59:41;-0.90;99.90
40153;DHT22;26371;56.992;23.912;2022-12-07T01:02:13;-0.90;99.90
40153;DHT22;26371;56.992;23.912;2022-12-07T01:04:42;-0.90;99.90
40153;DHT22;26371;56.992;23.912;2022-12-07T01:07:13;-0.90;99.90
40153;DHT22;26371;56.992;23.912;2022-12-07T01:09:42;-0.80;99.90
40153;DHT22;26371;56.992;23.912;2022-12-07T01:12:22;-0.80;99.90
40153;DHT22;26371;56.992;23.912;2022-12-07T01:14:53;-0.80;99.90
40153;DHT22;26371;56.992;23.912;2022-12-07T01:17:28;-0.90;99.90
40153;DHT22;26371;56.992;23.912;2022-12-07T01:19:56;-0.90;99.90
40153;DHT22;26371;56.992;23.912;2022-12-07T01:22:26;-0.90;99.90
40153;DHT22;26371;56.992;23.912;2022-12-07T01:25:00;-0.90;99.90
40153;DHT22;26371;56.992;23.912;2022-12-07T01:27:44;-0.80;99.90
40153;DHT22;26371;56.992;23.912;2022-12-07T01:30:18;-0.80;99.90
40153;DHT22;26371;56.992;23.912;2022-12-07T01:32:48;-0.80;99.90
40153;DHT22;26371;56.992;23.912;2022-12-07T01:35:20;-0.80;99.90
40153;DHT22;26371;56.992;23.912;2022-12-07T01:37:48;-0.90;99.90
40153;DHT22;26371;56.992;23.912;2022-12-07T01:40:17;-0.90;99.90
40153;DHT22;26371;56.992;23.912;2022-12-07T01:42:46;-0.90;99.90
40153;DHT22;26371;56.992;23.912;2022-12-07T01:45:37;-0.90;99.90
40153;DHT22;26371;56.992;23.912;2022-12-07T01:48:12;-0.90;99.90
40153;DHT22;26371;56.992;23.912;2022-12-07T01:50:42;-0.90;99.90
40153;DHT22;26371;56.992;23.912;2022-12-07T01:53:11;-0.90;99.90
40153;DHT22;26371;56.992;23.912;2022-12-07T01:55:43;-0.90;99.90
40153;DHT22;26371;56.992;23.912;2022-12-07T01:58:14;-0.90;99.90
40153;DHT22;26371;56.992;23.912;2022-12-07T02:00:43;-0.90;99.90
40153;DHT22;26371;56.992;23.912;2022-12-07T02:03:18;-0.90;99.90
40153;DHT22;26371;56.992;23.912;2022-12-07T02:05:49;-0.90;99.90
40153;DHT22;26371;56.992;23.912;2022-12-07T02:08:18;-0.90;99.90
40153;DHT22;26371;56.992;23.912;2022-12-07T02:10:48;-0.90;99.90
40153;DHT22;26371;56.992;23.912;2022-12-07T02:13:19;-0.90;99.90
40153;DHT22;26371;56.992;23.912;2022-12-07T02:16:03;-0.90;99.90
40153;DHT22;26371;56.992;23.912;2022-12-07T02:18:45;-0.90;99.90
40153;DHT22;26371;56.992;23.912;2022-12-07T02:21:23;-0.90;99.90
40153;DHT22;26371;56.992;23.912;2022-12-07T02:24:15;-0.90;99.90
40153;DHT22;26371;56.992;23.912;2022-12-07T02:27:10;-0.90;99.90
40153;DHT22;26371;56.992;23.912;2022-12-07T02:29:50;-0.90;99.90
40153;DHT22;26371;56.992;23.912;2022-12-07T02:32:25;-0.90;99.90
40153;DHT22;26371;56.992;23.912;2022-12-07T02:34:58;-0.80;99.90
40153;DHT22;26371;56.992;23.912;2022-12-07T02:37:35;-0.90;99.90
40153;DHT22;26371;56.992;23.912;2022-12-07T02:40:16;-0.90;99.90
40153;DHT22;26371;56.992;23.912;2022-12-07T02:42:47;-0.90;99.90
40153;DHT22;26371;56.992;23.912;2022-12-07T02:45:21;-0.90;99.90
40153;DHT22;26371;56.992;23.912;2022-12-07T02:47:52;-0.90;99.90
40153;DHT22;26371;56.992;23.912;2022-12-07T02:50:22;-0.90;99.90
40153;DHT22;26371;56.992;23.912;2022-12-07T02:52:51;-0.90;99.90
40153;DHT22;26371;56.992;23.912;2022-12-07T02:55:25;-0.90;99.90
40153;DHT22;26371;56.992;23.912;2022-12-07T02:58:06;-0.90;99.90
40153;DHT22;26371;56.992;23.912;2022-12-07T03:00:51;-0.90;99.90
40153;DHT22;26371;56.992;23.912;2022-12-07T03:03:22;-0.90;99.90
40153;DHT22;26371;56.992;23.912;2022-12-07T03:06:02;-0.90;99.90
40153;DHT22;26371;56.992;23.912;2022-12-07T03:08:56;-0.90;99.90
40153;DHT22;26371;56.992;23.912;2022-12-07T03:11:32;-0.90;99.90
40153;DHT22;26371;56.992;23.912;2022-12-07T03:14:17;-0.90;99.90
40153;DHT22;26371;56.992;23.912;2022-12-07T03:16:53;-0.90;99.90
40153;DHT22;26371;56.992;23.912;2022-12-07T03:19:27;-0.90;99.90
40153;DHT22;26371;56.992;23.912;2022-12-07T03:21:59;-0.90;99.90
40153;DHT22;26371;56.992;23.912;2022-12-07T03:24:33;-0.80;99.90
40153;DHT22;26371;56.992;23.912;2022-12-07T03:27:11;-0.90;99.90
40153;DHT22;26371;56.992;23.912;2022-12-07T03:29:45;-0.90;99.90
40153;DHT22;26371;56.992;23.912;2022-12-07T03:32:21;-0.90;99.90
40153;DHT22;26371;56.992;23.912;2022-12-07T03:34:55;-0.90;99.90
40153;DHT22;26371;56.992;23.912;2022-12-07T03:37:33;-0.90;99.90
40153;DHT22;26371;56.992;23.912;2022-12-07T03:40:10;-0.90;99.90
40153;DHT22;26371;56.992;23.912;2022-12-07T03:42:41;-0.90;99.90
40153;DHT22;26371;56.992;23.912;2022-12-07T03:45:10;-0.90;99.90
40153;DHT22;26371;56.992;23.912;2022-12-07T03:47:46;-0.90;99.90
40153;DHT22;26371;56.992;23.912;2022-12-07T03:50:21;-0.90;99.90
40153;DHT22;26371;56.992;23.912;2022-12-07T03:53:03;-0.90;99.90
40153;DHT22;26371;56.992;23.912;2022-12-07T03:55:35;-1.00;99.90
40153;DHT22;26371;56.992;23.912;2022-12-07T03:58:09;-0.90;99.90
40153;DHT22;26371;56.992;23.912;2022-12-07T04:00:40;-0.90;99.90
40153;DHT22;26371;56.992;23.912;2022-12-07T04:03:11;-0.90;99.90
40153;DHT22;26371;56.992;23.912;2022-12-07T04:05:40;-0.90;99.90
40153;DHT22;26371;56.992;23.912;2022-12-07T04:08:09;-0.90;99.90
40153;DHT22;26371;56.992;23.912;2022-12-07T04:10:40;-0.90;99.90
40153;DHT22;26371;56.992;23.912;2022-12-07T04:13:10;-0.90;99.90
40153;DHT22;26371;56.992;23.912;2022-12-07T04:15:41;-0.90;99.90
40153;DHT22;26371;56.992;23.912;2022-12-07T04:18:14;-0.90;99.90
40153;DHT22;26371;56.992;23.912;2022-12-07T04:20:43;-0.90;99.90
40153;DHT22;26371;56.992;23.912;2022-12-07T04:23:17;-0.90;99.90
40153;DHT22;26371;56.992;23.912;2022-12-07T04:25:59;-0.90;99.90
40153;DHT22;26371;56.992;23.912;2022-12-07T04:28:29;-0.90;99.90
40153;DHT22;26371;56.992;23.912;2022-12-07T04:30:57;-0.90;99.90
40153;DHT22;26371;56.992;23.912;2022-12-07T04:33:27;-0.90;99.90
40153;DHT22;26371;56.992;23.912;2022-12-07T04:35:56;-0.90;99.90
40153;DHT22;26371;56.992;23.912;2022-12-07T04:38:28;-0.90;99.90
40153;DHT22;26371;56.992;23.912;2022-12-07T04:40:56;-0.80;99.90
40153;DHT22;26371;56.992;23.912;2022-12-07T04:43:25;-0.80;99.90
40153;DHT22;26371;56.992;23.912;2022-12-07T04:45:56;-0.80;99.90
40153;DHT22;26371;56.992;23.912;2022-12-07T04:48:24;-0.90;99.90
40153;DHT22;26371;56.992;23.912;2022-12-07T04:50:55;-0.90;99.90
40153;DHT22;26371;56.992;23.912;2022-12-07T04:53:26;-0.90;99.90
40153;DHT22;26371;56.992;23.912;2022-12-07T04:55:54;-0.80;99.90
40153;DHT22;26371;56.992;23.912;2022-12-07T04:58:23;-0.80;99.90
40153;DHT22;26371;56.992;23.912;2022-12-07T05:00:54;-0.80;99.90
40153;DHT22;26371;56.992;23.912;2022-12-07T05:03:26;-0.80;99.90
40153;DHT22;26371;56.992;23.912;2022-12-07T05:05:56;-0.80;99.90
40153;DHT22;26371;56.992;23.912;2022-12-07T05:08:24;-0.80;99.90
40153;DHT22;26371;56.992;23.912;2022-12-07T05:10:55;-0.80;99.90
40153;DHT22;26371;56.992;23.912;2022-12-07T05:13:24;-0.80;99.90
40153;DHT22;26371;56.992;23.912;2022-12-07T05:15:52;-0.80;99.90
40153;DHT22;26371;56.992;23.912;2022-12-07T05:18:26;-0.80;99.90
40153;DHT22;26371;56.992;23.912;2022-12-07T05:21:02;-0.80;99.90
40153;DHT22;26371;56.992;23.912;2022-12-07T05:23:32;-0.80;99.90
40153;DHT22;26371;56.992;23.912;2022-12-07T05:26:01;-0.80;99.90
40153;DHT22;26371;56.992;23.912;2022-12-07T05:28:29;-0.80;99.90
40153;DHT22;26371;56.992;23.912;2022-12-07T05:30:58;-0.80;99.90
40153;DHT22;26371;56.992;23.912;2022-12-07T05:33:28;-0.80;99.90
40153;DHT22;26371;56.992;23.912;2022-12-07T05:35:57;-0.80;99.90
40153;DHT22;26371;56.992;23.912;2022-12-07T05:38:30;-0.80;99.90
40153;DHT22;26371;56.992;23.912;2022-12-07T05:41:00;-0.80;99.90
40153;DHT22;26371;56.992;23.912;2022-12-07T05:43:30;-0.80;99.90
40153;DHT22;26371;56.992;23.912;2022-12-07T05:45:59;-0.80;99.90
40153;DHT22;26371;56.992;23.912;2022-12-07T05:48:28;-0.80;99.90
40153;DHT22;26371;56.992;23.912;2022-12-07T05:50:56;-0.80;99.90
40153;DHT22;26371;56.992;23.912;2022-12-07T05:53:25;-0.80;99.90
40153;DHT22;26371;56.992;23.912;2022-12-07T05:55:55;-0.80;99.90
40153;DHT22;26371;56.992;23.912;2022-12-07T05:58:23;-0.80;99.90
40153;DHT22;26371;56.992;23.912;2022-12-07T06:01:10;-0.80;99.90
40153;DHT22;26371;56.992;23.912;2022-12-07T06:03:40;-0.80;99.90
40153;DHT22;26371;56.992;23.912;2022-12-07T06:06:11;-0.80;99.90
40153;DHT22;26371;56.992;23.912;2022-12-07T06:08:41;-0.80;99.90
40153;DHT22;26371;56.992;23.912;2022-12-07T06:11:11;-0.80;99.90
40153;DHT22;26371;56.992;23.912;2022-12-07T06:14:00;-0.70;99.90
40153;DHT22;26371;56.992;23.912;2022-12-07T06:16:29;-0.70;99.90
40153;DHT22;26371;56.992;23.912;2022-12-07T06:19:00;-0.70;99.90
40153;DHT22;26371;56.992;23.912;2022-12-07T06:21:29;-0.70;99.90
40153;DHT22;26371;56.992;23.912;2022-12-07T06:23:58;-0.70;99.90
40153;DHT22;26371;56.992;23.912;2022-12-07T06:26:28;-0.80;99.90
40153;DHT22;26371;56.992;23.912;2022-12-07T06:29:00;-0.70;99.90
40153;DHT22;26371;56.992;23.912;2022-12-07T06:31:28;-0.70;99.90
40153;DHT22;26371;56.992;23.912;2022-12-07T06:33:58;-0.70;99.90
40153;DHT22;26371;56.992;23.912;2022-12-07T06:36:27;-0.80;99.90
40153;DHT22;26371;56.992;23.912;2022-12-07T06:38:59;-0.70;99.90
40153;DHT22;26371;56.992;23.912;2022-12-07T06:41:30;-0.70;99.90
40153;DHT22;26371;56.992;23.912;2022-12-07T06:43:59;-0.80;99.90
40153;DHT22;26371;56.992;23.912;2022-12-07T06:46:28;-0.80;99.90
40153;DHT22;26371;56.992;23.912;2022-12-07T06:49:00;-0.80;99.90
40153;DHT22;26371;56.992;23.912;2022-12-07T06:51:29;-0.80;99.90
40153;DHT22;26371;56.992;23.912;2022-12-07T06:53:58;-0.80;99.90
40153;DHT22;26371;56.992;23.912;2022-12-07T06:56:26;-0.80;99.90
40153;DHT22;26371;56.992;23.912;2022-12-07T06:58:57;-0.80;99.90
40153;DHT22;26371;56.992;23.912;2022-12-07T07:01:25;-0.80;99.90
40153;DHT22;26371;56.992;23.912;2022-12-07T07:03:54;-0.80;99.90
40153;DHT22;26371;56.992;23.912;2022-12-07T07:06:23;-0.80;99.90
40153;DHT22;26371;56.992;23.912;2022-12-07T07:08:51;-0.80;99.90
40153;DHT22;26371;56.992;23.912;2022-12-07T07:11:20;-0.80;99.90
40153;DHT22;26371;56.992;23.912;2022-12-07T07:13:49;-0.80;99.90
40153;DHT22;26371;56.992;23.912;2022-12-07T07:16:19;-0.80;99.90
40153;DHT22;26371;56.992;23.912;2022-12-07T07:18:48;-0.80;99.90
40153;DHT22;26371;56.992;23.912;2022-12-07T07:21:16;-0.80;99.90
40153;DHT22;26371;56.992;23.912;2022-12-07T07:23:45;-0.80;99.90
40153;DHT22;26371;56.992;23.912;2022-12-07T07:26:13;-0.80;99.90
40153;DHT22;26371;56.992;23.912;2022-12-07T07:28:49;-0.80;99.90
40153;DHT22;26371;56.992;23.912;2022-12-07T07:31:21;-0.80;99.90
40153;DHT22;26371;56.992;23.912;2022-12-07T07:33:50;-0.80;99.90
40153;DHT22;26371;56.992;23.912;2022-12-07T07:36:18;-0.80;99.90
40153;DHT22;26371;56.992;23.912;2022-12-07T07:38:52;-0.80;99.90
40153;DHT22;26371;56.992;23.912;2022-12-07T07:41:21;-0.80;99.90
40153;DHT22;26371;56.992;23.912;2022-12-07T07:43:50;-0.80;99.90
40153;DHT22;26371;56.992;23.912;2022-12-07T07:46:20;-0.80;99.90
40153;DHT22;26371;56.992;23.912;2022-12-07T07:48:49;-0.80;99.90
40153;DHT22;26371;56.992;23.912;2022-12-07T07:51:22;-0.80;99.90
40153;DHT22;26371;56.992;23.912;2022-12-07T07:53:51;-0.80;99.90
40153;DHT22;26371;56.992;23.912;2022-12-07T07:56:19;-0.80;99.90
40153;DHT22;26371;56.992;23.912;2022-12-07T07:58:51;-0.80;99.90
40153;DHT22;26371;56.992;23.912;2022-12-07T08:01:24;-0.70;99.90
40153;DHT22;26371;56.992;23.912;2022-12-07T08:03:53;-0.70;99.90
40153;DHT22;26371;56.992;23.912;2022-12-07T08:06:24;-0.70;99.90
40153;DHT22;26371;56.992;23.912;2022-12-07T08:08:58;-0.70;99.90
40153;DHT22;26371;56.992;23.912;2022-12-07T08:11:27;-0.70;99.90
40153;DHT22;26371;56.992;23.912;2022-12-07T08:13:57;-0.70;99.90
40153;DHT22;26371;56.992;23.912;2022-12-07T08:16:37;-0.70;99.90
40153;DHT22;26371;56.992;23.912;2022-12-07T08:19:13;-0.70;99.90
40153;DHT22;26371;56.992;23.912;2022-12-07T08:21:42;-0.70;99.90
40153;DHT22;26371;56.992;23.912;2022-12-07T08:24:12;-0.70;99.90
40153;DHT22;26371;56.992;23.912;2022-12-07T08:26:41;-0.70;99.90
40153;DHT22;26371;56.992;23.912;2022-12-07T08:29:09;-0.70;99.90
40153;DHT22;26371;56.992;23.912;2022-12-07T08:31:39;-0.70;99.90
40153;DHT22;26371;56.992;23.912;2022-12-07T08:34:12;-0.70;99.90
40153;DHT22;26371;56.992;23.912;2022-12-07T08:36:41;-0.70;99.90
40153;DHT22;26371;56.992;23.912;2022-12-07T08:39:09;-0.70;99.90
40153;DHT22;26371;56.992;23.912;2022-12-07T08:42:00;-0.70;99.90
40153;DHT22;26371;56.992;23.912;2022-12-07T08:44:33;-0.70;99.90
40153;DHT22;26371;56.992;23.912;2022-12-07T08:47:06;-0.60;99.90
40153;DHT22;26371;56.992;23.912;2022-12-07T08:49:37;-0.60;99.90
40153;DHT22;26371;56.992;23.912;2022-12-07T08:52:09;-0.60;99.90
40153;DHT22;26371;56.992;23.912;2022-12-07T08:54:44;-0.60;99.90
40153;DHT22;26371;56.992;23.912;2022-12-07T08:57:15;-0.60;99.90
40153;DHT22;26371;56.992;23.912;2022-12-07T08:59:44;-0.70;99.90
40153;DHT22;26371;56.992;23.912;2022-12-07T09:02:14;-0.70;99.90
40153;DHT22;26371;56.992;23.912;2022-12-07T09:04:45;-0.70;99.90
40153;DHT22;26371;56.992;23.912;2022-12-07T09:07:17;-0.80;99.90
40153;DHT22;26371;56.992;23.912;2022-12-07T09:09:46;-0.70;99.90
40153;DHT22;26371;56.992;23.912;2022-12-07T09:12:16;-0.70;99.90
40153;DHT22;26371;56.992;23.912;2022-12-07T09:14:47;-0.70;99.90
40153;DHT22;26371;56.992;23.912;2022-12-07T09:17:20;-0.70;99.90
40153;DHT22;26371;56.992;23.912;2022-12-07T09:19:54;-0.60;99.90
40153;DHT22;26371;56.992;23.912;2022-12-07T09:22:28;-0.60;99.90
40153;DHT22;26371;56.992;23.912;2022-12-07T09:25:00;-0.60;99.90
40153;DHT22;26371;56.992;23.912;2022-12-07T09:27:32;-0.40;99.90
40153;DHT22;26371;56.992;23.912;2022-12-07T09:30:06;-0.30;99.90
40153;DHT22;26371;56.992;23.912;2022-12-07T09:32:40;-0.40;99.90
40153;DHT22;26371;56.992;23.912;2022-12-07T09:35:11;-0.40;99.90
40153;DHT22;26371;56.992;23.912;2022-12-07T09:37:40;-0.50;99.90
40153;DHT22;26371;56.992;23.912;2022-12-07T09:40:12;-0.50;99.90
40153;DHT22;26371;56.992;23.912;2022-12-07T09:42:47;-0.50;99.90
40153;DHT22;26371;56.992;23.912;2022-12-07T09:45:19;-0.50;99.90
40153;DHT22;26371;56.992;23.912;2022-12-07T09:47:51;-0.50;99.90
40153;DHT22;26371;56.992;23.912;2022-12-07T09:50:24;-0.50;99.90
40153;DHT22;26371;56.992;23.912;2022-12-07T09:53:13;-0.60;99.90
40153;DHT22;26371;56.992;23.912;2022-12-07T09:55:45;-0.50;99.90
40153;DHT22;26371;56.992;23.912;2022-12-07T09:58:19;-0.60;99.90
40153;DHT22;26371;56.992;23.912;2022-12-07T10:00:50;-0.60;99.90
40153;DHT22;26371;56.992;23.912;2022-12-07T10:03:23;-0.60;99.90
40153;DHT22;26371;56.992;23.912;2022-12-07T10:05:54;-0.60;99.90
40153;DHT22;26371;56.992;23.912;2022-12-07T10:08:26;-0.60;99.90
40153;DHT22;26371;56.992;23.912;2022-12-07T10:10:56;-0.60;99.90
40153;DHT22;26371;56.992;23.912;2022-12-07T10:13:37;-0.60;99.90
40153;DHT22;26371;56.992;23.912;2022-12-07T10:16:09;-0.60;99.90
40153;DHT22;26371;56.992;23.912;2022-12-07T10:18:57;-0.60;99.90
40153;DHT22;26371;56.992;23.912;2022-12-07T10:22:00;-0.60;99.90
40153;DHT22;26371;56.992;23.912;2022-12-07T10:24:32;-0.60;99.90
40153;DHT22;26371;56.992;23.912;2022-12-07T10:27:26;-0.60;99.90
40153;DHT22;26371;56.992;23.912;2022-12-07T10:29:57;-0.60;99.90
40153;DHT22;26371;56.992;23.912;2022-12-07T10:32:34;-0.50;99.90
40153;DHT22;26371;56.992;23.912;2022-12-07T10:35:22;-0.60;99.90
40153;DHT22;26371;56.992;23.912;2022-12-07T10:37:57;-0.60;99.90
40153;DHT22;26371;56.992;23.912;2022-12-07T10:40:31;-0.50;99.90
40153;DHT22;26371;56.992;23.912;2022-12-07T10:43:05;-0.50;99.90
40153;DHT22;26371;56.992;23.912;2022-12-07T10:46:01;-0.50;99.90
40153;DHT22;26371;56.992;23.912;2022-12-07T10:48:50;-0.50;99.90
40153;DHT22;26371;56.992;23.912;2022-12-07T10:51:34;-0.50;99.90
40153;DHT22;26371;56.992;23.912;2022-12-07T10:54:22;-0.50;99.90
40153;DHT22;26371;56.992;23.912;2022-12-07T10:57:04;-0.50;99.90
40153;DHT22;26371;56.992;23.912;2022-12-07T11:02:32;-0.50;99.90
40153;DHT22;26371;56.992;23.912;2022-12-07T11:05:15;-0.60;99.90
40153;DHT22;26371;56.992;23.912;2022-12-07T11:07:55;-0.50;99.90
40153;DHT22;26371;56.992;23.912;2022-12-07T11:10:41;-0.50;99.90
40153;DHT22;26371;56.992;23.912;2022-12-07T11:13:22;-0.60;99.90
40153;DHT22;26371;56.992;23.912;2022-12-07T11:16:05;-0.50;99.90
40153;DHT22;26371;56.992;23.912;2022-12-07T11:18:46;-0.50;99.90
40153;DHT22;26371;56.992;23.912;2022-12-07T11:21:25;-0.50;99.90
40153;DHT22;26371;56.992;23.912;2022-12-07T11:24:05;-0.50;99.90
40153;DHT22;26371;56.992;23.912;2022-12-07T11:26:50;-0.50;99.90
40153;DHT22;26371;56.992;23.912;2022-12-07T11:29:40;-0.50;99.90
40153;DHT22;26371;56.992;23.912;2022-12-07T11:32:19;-0.50;99.90
40153;DHT22;26371;56.992;23.912;2022-12-07T11:35:00;-0.50;99.90
40153;DHT22;26371;56.992;23.912;2022-12-07T11:37:34;-0.50;99.90
40153;DHT22;26371;56.992;23.912;2022-12-07T11:40:17;-0.60;99.90
40153;DHT22;26371;56.992;23.912;2022-12-07T11:42:57;-0.60;99.90
40153;DHT22;26371;56.992;23.912;2022-12-07T11:45:30;-0.60;99.90
40153;DHT22;26371;56.992;23.912;2022-12-07T11:48:02;-0.60;99.90
40153;DHT22;26371;56.992;23.912;2022-12-07T11:50:38;-0.60;99.90
40153;DHT22;26371;56.992;23.912;2022-12-07T11:53:18;-0.60;99.90
40153;DHT22;26371;56.992;23.912;2022-12-07T11:55:57;-0.50;99.90
40153;DHT22;26371;56.992;23.912;2022-12-07T11:58:40;-0.50;99.90
40153;DHT22;26371;56.992;23.912;2022-12-07T12:01:31;-0.50;99.90
40153;DHT22;26371;56.992;23.912;2022-12-07T12:04:06;-0.50;99.90
40153;DHT22;26371;56.992;23.912;2022-12-07T12:06:36;-0.50;99.90
40153;DHT22;26371;56.992;23.912;2022-12-07T12:09:13;-0.50;99.90
40153;DHT22;26371;56.992;23.912;2022-12-07T12:12:24;-0.60;99.90
40153;DHT22;26371;56.992;23.912;2022-12-07T12:18:57;-0.50;99.90
40153;DHT22;26371;56.992;23.912;2022-12-07T12:21:31;-0.40;99.90
40153;DHT22;26371;56.992;23.912;2022-12-07T12:24:06;-0.40;99.90
40153;DHT22;26371;56.992;23.912;2022-12-07T12:26:38;-0.40;99.90
40153;DHT22;26371;56.992;23.912;2022-12-07T12:29:23;-0.40;99.90
40153;DHT22;26371;56.992;23.912;2022-12-07T12:32:10;-0.40;99.90
40153;DHT22;26371;56.992;23.912;2022-12-07T12:34:57;-0.50;99.90
40153;DHT22;26371;56.992;23.912;2022-12-07T12:37:44;-0.50;99.90
40153;DHT22;26371;56.992;23.912;2022-12-07T12:40:37;-0.50;99.90
40153;DHT22;26371;56.992;23.912;2022-12-07T12:43:40;-0.50;99.90
40153;DHT22;26371;56.992;23.912;2022-12-07T12:46:45;-0.60;99.90
40153;DHT22;26371;56.992;23.912;2022-12-07T12:49:37;-0.60;99.90
40153;DHT22;26371;56.992;23.912;2022-12-07T12:55:26;-0.60;99.90
40153;DHT22;26371;56.992;23.912;2022-12-07T12:58:32;-0.60;99.90
40153;DHT22;26371;56.992;23.912;2022-12-07T13:07:50;-0.60;99.90
40153;DHT22;26371;56.992;23.912;2022-12-07T13:13:34;-0.70;99.90
40153;DHT22;26371;56.992;23.912;2022-12-07T13:22:54;-0.80;99.90
40153;DHT22;26371;56.992;23.912;2022-12-07T13:25:35;-0.80;99.90
40153;DHT22;26371;56.992;23.912;2022-12-07T13:28:13;-0.80;99.90
40153;DHT22;26371;56.992;23.912;2022-12-07T13:30:58;-0.70;99.90
40153;DHT22;26371;56.992;23.912;2022-12-07T13:33:29;-0.70;99.90
40153;DHT22;26371;56.992;23.912;2022-12-07T13:35:59;-0.70;99.90
40153;DHT22;26371;56.992;23.912;2022-12-07T13:38:32;-0.80;99.90
40153;DHT22;26371;56.992;23.912;2022-12-07T13:41:13;-0.70;99.90
40153;DHT22;26371;56.992;23.912;2022-12-07T13:43:44;-0.80;99.90
40153;DHT22;26371;56.992;23.912;2022-12-07T13:46:14;-0.80;99.90
40153;DHT22;26371;56.992;23.912;2022-12-07T13:48:46;-0.90;99.90
40153;DHT22;26371;56.992;23.912;2022-12-07T13:51:19;-0.90;99.90
40153;DHT22;26371;56.992;23.912;2022-12-07T13:53:59;-0.90;99.90
40153;DHT22;26371;56.992;23.912;2022-12-07T13:56:32;-0.90;99.90
40153;DHT22;26371;56.992;23.912;2022-12-07T13:59:16;-1.00;99.90
40153;DHT22;26371;56.992;23.912;2022-12-07T14:01:47;-1.00;99.90
40153;DHT22;26371;56.992;23.912;2022-12-07T14:04:28;-0.90;99.90
40153;DHT22;26371;56.992;23.912;2022-12-07T14:07:00;-0.90;99.90
40153;DHT22;26371;56.992;23.912;2022-12-07T14:09:33;-0.90;99.90
40153;DHT22;26371;56.992;23.912;2022-12-07T14:12:06;-0.90;99.90
40153;DHT22;26371;56.992;23.912;2022-12-07T14:14:37;-0.90;99.90
40153;DHT22;26371;56.992;23.912;2022-12-07T14:17:14;-0.90;99.90
40153;DHT22;26371;56.992;23.912;2022-12-07T14:19:49;-1.00;99.90
40153;DHT22;26371;56.992;23.912;2022-12-07T14:22:23;-1.00;99.90
40153;DHT22;26371;56.992;23.912;2022-12-07T14:27:49;-1.00;99.90
40153;DHT22;26371;56.992;23.912;2022-12-07T14:30:18;-1.00;99.90
40153;DHT22;26371;56.992;23.912;2022-12-07T14:32:48;-1.00;99.90
40153;DHT22;26371;56.992;23.912;2022-12-07T14:35:19;-1.00;99.90
40153;DHT22;26371;56.992;23.912;2022-12-07T14:37:49;-1.00;99.90
40153;DHT22;26371;56.992;23.912;2022-12-07T14:40:21;-1.00;99.90
40153;DHT22;26371;56.992;23.912;2022-12-07T14:42:51;-1.10;99.90
40153;DHT22;26371;56.992;23.912;2022-12-07T14:45:22;-1.20;99.90
40153;DHT22;26371;56.992;23.912;2022-12-07T14:47:51;-1.40;99.90
40153;DHT22;26371;56.992;23.912;2022-12-07T14:50:43;-1.40;99.90
40153;DHT22;26371;56.992;23.912;2022-12-07T14:53:35;-1.40;99.90
40153;DHT22;26371;56.992;23.912;2022-12-07T14:56:07;-1.40;99.90
40153;DHT22;26371;56.992;23.912;2022-12-07T14:58:35;-1.40;99.90
40153;DHT22;26371;56.992;23.912;2022-12-07T15:01:04;-1.30;99.90
40153;DHT22;26371;56.992;23.912;2022-12-07T15:03:33;-1.40;99.90
40153;DHT22;26371;56.992;23.912;2022-12-07T15:06:05;-1.40;99.90
40153;DHT22;26371;56.992;23.912;2022-12-07T15:08:34;-1.40;99.90
40153;DHT22;26371;56.992;23.912;2022-12-07T15:11:02;-1.40;99.90
40153;DHT22;26371;56.992;23.912;2022-12-07T15:13:35;-1.40;99.90
40153;DHT22;26371;56.992;23.912;2022-12-07T15:16:20;-1.40;99.90
40153;DHT22;26371;56.992;23.912;2022-12-07T15:18:49;-1.40;99.90
40153;DHT22;26371;56.992;23.912;2022-12-07T15:21:38;-1.40;99.90
40153;DHT22;26371;56.992;23.912;2022-12-07T15:24:09;-1.40;99.90
40153;DHT22;26371;56.992;23.912;2022-12-07T15:26:38;-1.40;99.90
40153;DHT22;26371;56.992;23.912;2022-12-07T15:29:09;-1.40;99.90
40153;DHT22;26371;56.992;23.912;2022-12-07T15:31:38;-1.40;99.90
40153;DHT22;26371;56.992;23.912;2022-12-07T15:34:24;-1.40;99.90
40153;DHT22;26371;56.992;23.912;2022-12-07T15:36:54;-1.30;99.90
40153;DHT22;26371;56.992;23.912;2022-12-07T15:39:22;-1.40;99.90
40153;DHT22;26371;56.992;23.912;2022-12-07T15:41:51;-1.40;99.90
40153;DHT22;26371;56.992;23.912;2022-12-07T15:44:21;-1.40;99.90
40153;DHT22;26371;56.992;23.912;2022-12-07T15:47:08;-1.40;99.90
40153;DHT22;26371;56.992;23.912;2022-12-07T15:49:36;-1.40;99.90
40153;DHT22;26371;56.992;23.912;2022-12-07T15:52:05;-1.40;99.90
40153;DHT22;26371;56.992;23.912;2022-12-07T15:54:34;-1.40;99.90
40153;DHT22;26371;56.992;23.912;2022-12-07T15:57:03;-1.40;99.90
40153;DHT22;26371;56.992;23.912;2022-12-07T15:59:33;-1.40;99.90
40153;DHT22;26371;56.992;23.912;2022-12-07T16:02:02;-1.40;99.90
40153;DHT22;26371;56.992;23.912;2022-12-07T16:04:32;-1.40;99.90
40153;DHT22;26371;56.992;23.912;2022-12-07T16:07:01;-1.40;99.90
40153;DHT22;26371;56.992;23.912;2022-12-07T16:09:30;-1.40;99.90
40153;DHT22;26371;56.992;23.912;2022-12-07T16:11:59;-1.40;99.90
40153;DHT22;26371;56.992;23.912;2022-12-07T16:14:27;-1.40;99.90
40153;DHT22;26371;56.992;23.912;2022-12-07T16:16:57;-1.40;99.90
40153;DHT22;26371;56.992;23.912;2022-12-07T16:19:26;-1.40;99.90
40153;DHT22;26371;56.992;23.912;2022-12-07T16:21:55;-1.40;99.90
40153;DHT22;26371;56.992;23.912;2022-12-07T16:24:27;-1.40;99.90
40153;DHT22;26371;56.992;23.912;2022-12-07T16:26:59;-1.40;99.90